• Join FlightAware (Why Join?)
  • Login
  • US Flag 
04:03PM EST


 

Airport Tracker/Info


-or-


 

Live Flight TrackerFlight Track Log ✈ UAL651 ✈ 17-Jul-2013 ✈ CYVR - KSFO

Flight Track Log - Related Links

Times and Time Zones

All times are in EDT time to prevent confusion due to time zone crossing. See the UAL651 flight status page for this flight to view local times or setup timezone preferences in your user account.

Time Position Orientation Groundspeed Altitude Reporting Facility
EDT Latitude Longitude Course Direction KTS MPH feet Rate Location/Type
09:09AM 49.1667 -123.1333 180° South 150 173 1,300  Level Vancouver Center
09:10AM 49.1500 -123.0667 111° Southeast 210 242 3,300 2,220 Climbing Vancouver Center
09:11AM 49.1000 -123.0167 147° Southeast 250 288 5,800 3,000 Climbing Vancouver Center
09:12AM 48.8915 -123.1588 204° Southwest  Level Estimated
09:12AM 49.0333 -123.0333 189° South 270 311 9,400  Level Vancouver Center
09:13AM 48.7840 -123.1497 177° South  Level Estimated
09:13AM 49.0000 -123.1667 249° West 310 357 12,000  Level Vancouver Center
09:14AM 48.6764 -123.1499 180° South  Level FlightAware Approximate
09:14AM 48.9667 -123.2833 247° West 340 391 14,700  Level Vancouver Center
09:15AM 48.9333 -123.4500 253° West 350 403 17,500 2,640 Climbing Vancouver Center
09:16AM 48.8833 -123.5500 233° Southwest 330 380 20,000 2,280 Climbing Vancouver Center
09:17AM 48.8000 -123.6167 208° Southwest 350 403 22,100 1,800 Climbing Vancouver Center
09:18AM 48.7167 -123.7000 213° Southwest 330 380 23,700 1,200 Climbing Vancouver Center
09:19AM 48.6333 -123.6667 165° South 320 368 24,600 1,200 Climbing Vancouver Center
09:20AM 48.5333 -123.6500 174° South 330 380 26,200 1,620 Climbing Vancouver Center
09:21AM 48.4500 -123.6500 180° South 340 391 27,900 1,500 Climbing Vancouver Center
09:22AM 48.3500 -123.6167 168° South 350 403 29,200 1,080 Climbing Vancouver Center
09:23AM 48.2919 -123.6094 175° South 359 413 29,800 660 Climbing Seattle Center
09:24AM 48.1847 -123.5917 174° South 377 434 30,400 900 Climbing Seattle Center
09:25AM 48.0686 -123.5711 173° South 412 474 31,700 1,320 Climbing Seattle Center
09:26AM 47.9586 -123.5525 174° South 416 479 33,100 1,320 Climbing Seattle Center
09:27AM 47.8453 -123.5333 174° South 416 479 34,400 1,200 Climbing Seattle Center
09:28AM 47.7336 -123.5125 173° South 411 473 35,600 1,080 Climbing Seattle Center
09:29AM 47.6203 -123.4911 173° South 415 478 36,600 660 Climbing Seattle Center
09:30AM 47.5086 -123.4728 174° South 412 474 37,000 180 Climbing Seattle Center
09:31AM 47.3728 -123.4483 173° South 416 479 37,000  Level Seattle Center
09:32AM 47.2594 -123.4297 174° South 415 478 37,000  Level Seattle Center
09:33AM 47.1450 -123.4100 173° South 418 481 37,000  Level Seattle Center
09:34AM 47.0317 -123.4019 177° South 416 479 37,000  Level Seattle Center
09:35AM 46.9178 -123.3981 179° South 414 476 37,000  Level Seattle Center
09:36AM 46.8039 -123.3933 178° South 414 476 37,000  Level Seattle Center
09:37AM 46.6914 -123.3903 179° South 411 473 37,000  Level Seattle Center
09:38AM 46.5797 -123.3844 178° South 407 468 37,000  Level Seattle Center
09:39AM 46.4681 -123.3825 179° South 406 467 37,000 -60 Level Seattle Center
09:40AM 46.3458 -123.3744 177° South 410 472 36,900 -60 Descending Seattle Center
09:41AM 46.2328 -123.3706 179° South 412 474 36,900  Level Seattle Center
09:42AM 46.1186 -123.3653 178° South 414 476 36,900  Level Seattle Center
09:43AM 46.0044 -123.3600 178° South 414 476 37,000  Climbing Seattle Center
09:44AM 45.8900 -123.3558 179° South 413 475 37,000  Level Seattle Center
09:45AM 45.7750 -123.3503 178° South 414 476 37,000 -60 Level Seattle Center
09:46AM 45.6617 -123.3453 178° South 411 473 36,900 -60 Descending Seattle Center
09:47AM 45.5492 -123.3389 178° South 405 466 36,900  Level Seattle Center
09:48AM 45.4389 -123.3347 178° South 400 460 36,900  Level Seattle Center
09:49AM 45.3056 -123.3269 178° South 400 460 36,900  Level Seattle Center
09:50AM 45.1947 -123.3222 178° South 398 458 36,900  Level Seattle Center
09:51AM 45.0825 -123.3169 178° South 400 460 37,000  Climbing Seattle Center
09:52AM 44.9678 -123.3108 178° South 406 467 37,000  Level Seattle Center
09:53AM 44.8533 -123.3056 178° South 405 466 37,000  Level Seattle Center
09:54AM 44.7406 -123.3022 179° South 403 464 37,000 -60 Level Seattle Center
09:55AM 44.6303 -123.2981 178° South 396 456 36,900  Descending Seattle Center
09:56AM 44.5197 -123.2933 178° South 399 459 37,000  Climbing Seattle Center
09:57AM 44.4100 -123.2972 181° South 388 447 36,900 -60 Descending Seattle Center
09:58AM 44.2989 -123.3003 181° South 400 460 36,900  Level Seattle Center
09:59AM 44.1892 -123.3053 182° South 396 456 36,900  Level Seattle Center
10:00AM 44.0808 -123.3111 182° South 392 451 36,900  Level Seattle Center
10:01AM 43.9644 -123.3172 182° South 389 448 37,000  Climbing Seattle Center
10:02AM 43.8558 -123.3214 182° South 389 448 37,000  Level Seattle Center
10:04AM 43.7475 -123.3267 182° South 389 448 37,000  Level Seattle Center
10:05AM 43.6394 -123.3314 182° South 388 447 37,000  Level Seattle Center
10:06AM 43.5314 -123.3358 182° South 388 447 37,000  Level Seattle Center
10:07AM 43.4236 -123.3403 182° South 389 448 37,000  Level Seattle Center
10:08AM 43.3156 -123.3439 181° South 388 447 37,000  Level Seattle Center
10:09AM 43.2083 -123.3508 183° South 387 445 37,000  Level Seattle Center
10:10AM 43.0997 -123.3511 180° South 389 448 37,000  Level Seattle Center
10:11AM 42.9931 -123.3464 178° South 386 444 37,000  Level Seattle Center
10:12AM 42.8853 -123.3442 179° South 385 443 37,000  Level Seattle Center
10:13AM 42.7781 -123.3431 180° South 386 444 37,000  Level Seattle Center
10:14AM 42.6603 -123.3414 179° South 383 441 37,000  Level Seattle Center
10:15AM 42.5547 -123.3392 179° South 382 440 37,000  Level Seattle Center
10:16AM 42.4483 -123.3358 179° South 382 440 37,000  Level Seattle Center
10:17AM 42.3428 -123.3331 179° South 382 440 37,000  Level Seattle Center
10:18AM 42.2369 -123.3314 179° South 382 440 37,000  Level Seattle Center
10:19AM 42.1325 -123.3297 179° South 379 436 37,000  Level Seattle Center
10:20AM 42.0056 -123.3275 179° South 381 438 37,000  Level Seattle Center
10:21AM 41.9008 -123.3253 179° South 379 436 37,000  Level Seattle Center
10:22AM 41.7953 -123.3228 179° South 379 436 37,000  Level Seattle Center
10:23AM 41.6914 -123.3203 179° South 376 433 37,000  Level Seattle Center
10:24AM 41.5892 -123.3103 176° South 371 427 37,000  Level Seattle Center
10:25AM 41.4856 -123.2969 174° South 374 430 37,000 -60 Level Seattle Center
10:26AM 41.3767 -123.2839 175° South 373 429 36,900 -60 Descending Seattle Center
10:27AM 41.2717 -123.2686 174° South 376 433 36,900  Level Seattle Center
10:28AM 41.1678 -123.2550 174° South 376 433 37,000  Climbing Seattle Center
10:29AM 41.0636 -123.2422 175° South 376 433 37,000  Level Seattle Center
10:30AM 40.9583 -123.2281 174° South 377 434 37,000  Level Seattle Center
10:31AM 40.8531 -123.2153 175° South 378 435 37,000  Level Seattle Center
10:32AM 40.7481 -123.2017 174° South 378 435 37,000 -60 Level Seattle Center
10:33AM 40.6428 -123.1872 174° South 379 436 36,900  Descending Seattle Center
10:34AM 40.5200 -123.1725 175° South 377 434 37,000  Climbing Oakland Center
10:35AM 40.4167 -123.1597 175° South 375 432 37,000  Level Oakland Center
10:36AM 40.3122 -123.1469 175° South 378 435 37,000  Level Oakland Center
10:37AM 40.2086 -123.1344 175° South 376 433 37,000  Level Oakland Center
10:38AM 40.1056 -123.1203 174° South 375 432 37,000  Level Oakland Center
10:39AM 39.9817 -123.1044 174° South 375 432 37,000  Level Oakland Center
10:40AM 39.8789 -123.0911 174° South 373 429 37,000  Level Oakland Center
10:41AM 39.7744 -123.0794 175° South 377 434 37,000  Level Oakland Center
10:42AM 39.6697 -123.0644 174° South 379 436 37,000  Level Oakland Center
10:43AM 39.5658 -123.0514 174° South 377 434 37,000  Level Oakland Center
10:44AM 39.4628 -123.0378 174° South 379 436 37,000 -60 Level Oakland Center
10:45AM 39.3600 -123.0236 174° South 373 429 36,900 -60 Descending Oakland Center
10:46AM 39.2544 -123.0108 175° South 380 437 36,900 -480 Level Oakland Center
10:47AM 39.1286 -122.9947 174° South 380 437 36,000 -1,620 Descending Oakland Center
10:48AM 39.0236 -122.9811 174° South 380 437 33,700 -2,340 Descending Oakland Center
10:49AM 38.9144 -122.9678 175° South 392 451 31,300 -2,280 Descending Oakland Center
10:50AM 38.8064 -122.9553 175° South 392 451 29,100 -2,220 Descending Oakland Center
10:51AM 38.7000 -122.9428 175° South 387 445 26,900 -2,160 Descending Oakland Center
10:52AM 38.5956 -122.9303 175° South 380 437 24,700 -2,160 Descending Oakland Center
10:53AM 38.4911 -122.9181 175° South 377 434 22,500 -2,160 Descending Oakland Center
10:54AM 38.3914 -122.9053 174° South 368 423 20,400 -2,160 Descending Oakland Center
10:56AM 38.2908 -122.8936 175° South 365 420 18,200 -2,280 Descending Oakland Center
10:57AM 38.1742 -122.8803 175° South 348 400 15,800 -2,100 Descending Oakland Center
10:58AM 38.0800 -122.8653 173° South 343 395 13,900 -1,860 Descending Oakland Center
10:59AM 38.0072 -122.7897 141° Southeast 341 392 12,100 -1,440 Descending Oakland Center
11:00AM 37.9378 -122.7167 140° Southeast 333 383 11,000 -480 Descending Oakland Center
11:01AM 37.8500 -122.6167 138° Southeast 329 379 11,100  Climbing Northern Cal TRACON
11:02AM 37.7833 -122.5500 142° Southeast 326 375 11,000 -60 Descending Northern Cal TRACON
11:03AM 37.7167 -122.4833 142° Southeast 326 375 11,000  Level Northern Cal TRACON
11:04AM 37.6500 -122.4167 142° Southeast 320 368 11,000  Level Northern Cal TRACON
11:05AM 37.6000 -122.3500 133° Southeast 257 296 11,100 -240 Climbing Northern Cal TRACON
11:05AM 37.5500 -122.3167 152° Southeast 211 243 10,600 -900 Descending Northern Cal TRACON
11:06AM 37.5000 -122.2833 152° Southeast 202 232 9,400 -840 Descending Northern Cal TRACON
11:07AM 37.4500 -122.2667 165° South 200 230 9,100 -660 Descending Northern Cal TRACON
11:08AM 37.4333 -122.2000 107° East 202 232 8,200 -1,200 Descending Northern Cal TRACON
11:09AM 37.4167 -122.1333 107° East 218 251 6,800 -1,320 Descending Northern Cal TRACON
11:10AM 37.4500 -122.0833 50° Northeast 207 238 5,800 -1,320 Descending Northern Cal TRACON
11:11AM 37.5000 -122.1000 345° North 195 224 4,400 -1,560 Descending Northern Cal TRACON
11:12AM 37.5333 -122.1500 310° West 190 219 2,700 -1,320 Descending Northern Cal TRACON
11:13AM 37.5500 -122.2000 293° West 177 204 1,800 -900 Descending Northern Cal TRACON